This is the latest recevied weather packets stored in our database for station/object OH6DL-15. If no packets are shown the sender has not sent any weather packets the latest 10 day(s).
| Time | Temp. | Humidity | Pressure | Rain* | Wind** | Luminosity | Snow |
|---|---|---|---|---|---|---|---|
| 1777248543 | -0.56° C | 76% | 1011.2 hPa | 0 mm | - | - | - |
| 1777246023 | -0.56° C | 74% | 1011.1 hPa | 0 mm | - | - | - |
| 1777245483 | -0.56° C | 74% | 1011.1 hPa | 0 mm | - | - | - |
| 1777244943 | -0.56° C | 74% | 1011.1 hPa | 0 mm | - | - | - |
| 1777243503 | -0.56° C | 72% | 1010.9 hPa | 0 mm | - | - | - |
| 1777242424 | -0.56° C | 70% | 1010.9 hPa | 0 mm | - | - | - |
| 1777240935 | -0.56° C | 67% | 1010.5 hPa | 0 mm | - | - | - |
| 1777239903 | 0° C | 66% | 1010.8 hPa | 0 mm | - | - | - |
| 1777236303 | 0.56° C | 60% | 1010.4 hPa | 0 mm | - | - | - |
| 1777234144 | 1.11° C | 59% | 1009.9 hPa | 0 mm | - | - | - |
| 1777232703 | 1.11° C | 55% | 1009.7 hPa | 0 mm | - | - | - |
| 1777230003 | 1.67° C | 52% | 1009.3 hPa | 0 mm | - | - | - |
| 1777228564 | 2.22° C | 50% | 1009.2 hPa | 0 mm | - | - | - |
| 1777227618 | 2.22° C | 50% | 1009 hPa | 0 mm | - | - | - |
| 1777226403 | 2.78° C | 47% | 1008.5 hPa | 0 mm | - | - | - |
| 1777224013 | 3.33° C | 45% | 1008 hPa | 0 mm | - | - | - |
| 1777222804 | 3.89° C | 43% | 1007.9 hPa | 0 mm | - | - | - |
| 1777219744 | 4.44° C | 41% | 1007.6 hPa | 0 mm | - | - | - |
| 1777212544 | 4.44° C | 44% | 1006.7 hPa | 0 mm | - | - | - |
| 1777211104 | 6.11° C | 41% | 1006.1 hPa | 0 mm | - | - | - |
| 1777208043 | 4.44° C | 47% | 1005.8 hPa | 0 mm | - | - | - |
| 1777204443 | 4.44° C | 44% | 1005.6 hPa | 0 mm | - | - | - |
| 1777201203 | 3.33° C | 48% | 1005 hPa | 0 mm | - | - | - |
| 1777196164 | 3.89° C | 51% | 1004.3 hPa | 0 mm | - | - | - |
| 1777192563 | 3.33° C | 48% | 1003.4 hPa | 0 mm | - | - | - |
* Rain latest hour (hover to see other rain measurements)
** Current wind speed in m/s (hover to see current wind gust speed)